sensor_id;sensor_type;location;lat;lon;timestamp;P1;durP1;ratioP1;P2;durP2;ratioP2
30888;SDS011;51092;50.874;7.024;2023-08-06T00:00:46;6.45;;;3.72;;
30888;SDS011;51092;50.874;7.024;2023-08-06T00:01:48;5.43;;;4.00;;
30888;SDS011;51092;50.874;7.024;2023-08-06T00:02:51;8.25;;;3.83;;
30888;SDS011;51092;50.874;7.024;2023-08-06T00:03:52;7.78;;;3.83;;
30888;SDS011;51092;50.874;7.024;2023-08-06T00:04:55;4.80;;;4.00;;
30888;SDS011;51092;50.874;7.024;2023-08-06T00:05:56;7.63;;;4.28;;
30888;SDS011;51092;50.874;7.024;2023-08-06T00:06:58;7.28;;;4.35;;
30888;SDS011;51092;50.874;7.024;2023-08-06T00:08:00;7.15;;;4.45;;
30888;SDS011;51092;50.874;7.024;2023-08-06T00:09:02;7.32;;;4.57;;
30888;SDS011;51092;50.874;7.024;2023-08-06T00:10:05;9.73;;;4.97;;
30888;SDS011;51092;50.874;7.024;2023-08-06T00:11:07;7.88;;;5.28;;
30888;SDS011;51092;50.874;7.024;2023-08-06T00:12:09;5.63;;;4.65;;
30888;SDS011;51092;50.874;7.024;2023-08-06T00:13:11;6.85;;;5.30;;
30888;SDS011;51092;50.874;7.024;2023-08-06T00:14:13;6.43;;;4.53;;
30888;SDS011;51092;50.874;7.024;2023-08-06T00:15:16;7.70;;;5.15;;
30888;SDS011;51092;50.874;7.024;2023-08-06T00:16:18;5.88;;;4.80;;
30888;SDS011;51092;50.874;7.024;2023-08-06T00:17:20;8.65;;;4.82;;
30888;SDS011;51092;50.874;7.024;2023-08-06T00:18:22;6.35;;;4.68;;
30888;SDS011;51092;50.874;7.024;2023-08-06T00:19:24;5.57;;;4.97;;
30888;SDS011;51092;50.874;7.024;2023-08-06T00:20:25;4.82;;;4.15;;
30888;SDS011;51092;50.874;7.024;2023-08-06T00:21:26;6.25;;;5.35;;
30888;SDS011;51092;50.874;7.024;2023-08-06T00:22:28;5.90;;;5.32;;
30888;SDS011;51092;50.874;7.024;2023-08-06T00:23:30;8.00;;;7.10;;
30888;SDS011;51092;50.874;7.024;2023-08-06T00:24:32;8.60;;;5.07;;
30888;SDS011;51092;50.874;7.024;2023-08-06T00:25:34;9.20;;;4.90;;
30888;SDS011;51092;50.874;7.024;2023-08-06T00:26:37;8.75;;;5.10;;
30888;SDS011;51092;50.874;7.024;2023-08-06T00:27:38;6.15;;;5.45;;
30888;SDS011;51092;50.874;7.024;2023-08-06T00:28:41;9.70;;;5.72;;
30888;SDS011;51092;50.874;7.024;2023-08-06T00:29:42;8.90;;;5.00;;
30888;SDS011;51092;50.874;7.024;2023-08-06T00:30:44;7.03;;;4.80;;
30888;SDS011;51092;50.874;7.024;2023-08-06T00:31:46;6.85;;;5.90;;
30888;SDS011;51092;50.874;7.024;2023-08-06T00:32:48;8.30;;;4.95;;
30888;SDS011;51092;50.874;7.024;2023-08-06T00:33:51;9.13;;;5.72;;
30888;SDS011;51092;50.874;7.024;2023-08-06T00:34:54;5.07;;;4.05;;
30888;SDS011;51092;50.874;7.024;2023-08-06T00:35:55;6.00;;;5.03;;
30888;SDS011;51092;50.874;7.024;2023-08-06T00:36:58;8.38;;;4.63;;
30888;SDS011;51092;50.874;7.024;2023-08-06T00:37:59;5.13;;;4.57;;
30888;SDS011;51092;50.874;7.024;2023-08-06T00:39:02;7.22;;;4.93;;
30888;SDS011;51092;50.874;7.024;2023-08-06T00:40:04;5.32;;;4.68;;
30888;SDS011;51092;50.874;7.024;2023-08-06T00:41:06;8.38;;;5.13;;
30888;SDS011;51092;50.874;7.024;2023-08-06T00:42:08;9.45;;;4.55;;
30888;SDS011;51092;50.874;7.024;2023-08-06T00:43:10;8.35;;;4.38;;
30888;SDS011;51092;50.874;7.024;2023-08-06T00:44:13;8.25;;;4.70;;
30888;SDS011;51092;50.874;7.024;2023-08-06T00:45:14;7.72;;;4.97;;
30888;SDS011;51092;50.874;7.024;2023-08-06T00:46:17;7.40;;;4.60;;
30888;SDS011;51092;50.874;7.024;2023-08-06T00:47:18;10.90;;;4.60;;
30888;SDS011;51092;50.874;7.024;2023-08-06T00:48:21;8.50;;;4.50;;
30888;SDS011;51092;50.874;7.024;2023-08-06T00:49:24;18.70;;;6.35;;
30888;SDS011;51092;50.874;7.024;2023-08-06T00:50:27;5.72;;;4.90;;
30888;SDS011;51092;50.874;7.024;2023-08-06T00:51:28;5.05;;;4.55;;
30888;SDS011;51092;50.874;7.024;2023-08-06T00:52:31;7.90;;;5.20;;
30888;SDS011;51092;50.874;7.024;2023-08-06T00:53:32;6.88;;;4.82;;
30888;SDS011;51092;50.874;7.024;2023-08-06T00:54:35;5.80;;;4.97;;
30888;SDS011;51092;50.874;7.024;2023-08-06T00:55:37;7.15;;;5.35;;
30888;SDS011;51092;50.874;7.024;2023-08-06T00:56:40;7.78;;;4.68;;
30888;SDS011;51092;50.874;7.024;2023-08-06T00:57:43;5.60;;;4.60;;
30888;SDS011;51092;50.874;7.024;2023-08-06T00:58:45;8.52;;;5.65;;
30888;SDS011;51092;50.874;7.024;2023-08-06T00:59:47;7.65;;;5.38;;
30888;SDS011;51092;50.874;7.024;2023-08-06T01:00:50;6.82;;;4.97;;
30888;SDS011;51092;50.874;7.024;2023-08-06T01:01:52;5.97;;;4.30;;
30888;SDS011;51092;50.874;7.024;2023-08-06T01:02:54;10.35;;;5.00;;
30888;SDS011;51092;50.874;7.024;2023-08-06T01:03:56;9.68;;;5.78;;
30888;SDS011;51092;50.874;7.024;2023-08-06T01:05:00;6.35;;;4.90;;
30888;SDS011;51092;50.874;7.024;2023-08-06T01:06:01;5.53;;;4.20;;
30888;SDS011;51092;50.874;7.024;2023-08-06T01:07:08;7.85;;;4.85;;
30888;SDS011;51092;50.874;7.024;2023-08-06T01:08:23;6.03;;;4.85;;
30888;SDS011;51092;50.874;7.024;2023-08-06T01:09:35;9.32;;;4.95;;
30888;SDS011;51092;50.874;7.024;2023-08-06T01:10:49;7.07;;;4.90;;
30888;SDS011;51092;50.874;7.024;2023-08-06T01:12:00;5.57;;;4.63;;
30888;SDS011;51092;50.874;7.024;2023-08-06T01:13:08;7.03;;;5.43;;
30888;SDS011;51092;50.874;7.024;2023-08-06T01:14:20;5.72;;;4.70;;
30888;SDS011;51092;50.874;7.024;2023-08-06T01:15:32;7.35;;;4.97;;
30888;SDS011;51092;50.874;7.024;2023-08-06T01:16:40;5.25;;;4.78;;
30888;SDS011;51092;50.874;7.024;2023-08-06T01:17:41;6.45;;;4.43;;
30888;SDS011;51092;50.874;7.024;2023-08-06T01:18:46;5.78;;;4.55;;
30888;SDS011;51092;50.874;7.024;2023-08-06T01:19:50;7.47;;;5.13;;
30888;SDS011;51092;50.874;7.024;2023-08-06T01:20:53;6.55;;;4.57;;
30888;SDS011;51092;50.874;7.024;2023-08-06T01:21:55;5.95;;;5.18;;
30888;SDS011;51092;50.874;7.024;2023-08-06T01:22:57;6.05;;;5.13;;
30888;SDS011;51092;50.874;7.024;2023-08-06T01:23:59;7.03;;;4.93;;
30888;SDS011;51092;50.874;7.024;2023-08-06T01:25:01;6.60;;;4.90;;
30888;SDS011;51092;50.874;7.024;2023-08-06T01:26:04;8.68;;;4.90;;
30888;SDS011;51092;50.874;7.024;2023-08-06T01:27:17;7.65;;;5.15;;
30888;SDS011;51092;50.874;7.024;2023-08-06T01:28:27;7.15;;;5.38;;
30888;SDS011;51092;50.874;7.024;2023-08-06T01:29:37;6.07;;;4.40;;
30888;SDS011;51092;50.874;7.024;2023-08-06T01:30:44;8.95;;;5.65;;
30888;SDS011;51092;50.874;7.024;2023-08-06T01:31:50;5.35;;;4.68;;
30888;SDS011;51092;50.874;7.024;2023-08-06T01:32:56;6.20;;;5.15;;
30888;SDS011;51092;50.874;7.024;2023-08-06T01:34:02;8.73;;;4.88;;
30888;SDS011;51092;50.874;7.024;2023-08-06T01:35:06;9.10;;;4.88;;
30888;SDS011;51092;50.874;7.024;2023-08-06T01:36:11;7.18;;;5.15;;
30888;SDS011;51092;50.874;7.024;2023-08-06T01:37:13;5.82;;;4.70;;
30888;SDS011;51092;50.874;7.024;2023-08-06T01:38:16;7.40;;;6.10;;
30888;SDS011;51092;50.874;7.024;2023-08-06T01:39:17;4.80;;;4.22;;
30888;SDS011;51092;50.874;7.024;2023-08-06T01:40:21;5.88;;;4.95;;
30888;SDS011;51092;50.874;7.024;2023-08-06T01:41:23;6.30;;;4.53;;
30888;SDS011;51092;50.874;7.024;2023-08-06T01:42:25;8.43;;;5.25;;
30888;SDS011;51092;50.874;7.024;2023-08-06T01:43:27;6.75;;;4.90;;
30888;SDS011;51092;50.874;7.024;2023-08-06T01:44:29;8.45;;;5.97;;
30888;SDS011;51092;50.874;7.024;2023-08-06T01:45:31;7.03;;;5.30;;
30888;SDS011;51092;50.874;7.024;2023-08-06T01:46:33;8.55;;;5.28;;
30888;SDS011;51092;50.874;7.024;2023-08-06T01:47:35;8.32;;;5.78;;
30888;SDS011;51092;50.874;7.024;2023-08-06T01:48:38;9.98;;;5.60;;
30888;SDS011;51092;50.874;7.024;2023-08-06T01:49:39;7.88;;;4.88;;
30888;SDS011;51092;50.874;7.024;2023-08-06T01:50:41;5.50;;;4.47;;
30888;SDS011;51092;50.874;7.024;2023-08-06T01:51:44;8.10;;;4.93;;
30888;SDS011;51092;50.874;7.024;2023-08-06T01:52:47;6.75;;;4.50;;
30888;SDS011;51092;50.874;7.024;2023-08-06T01:53:48;6.93;;;4.22;;
30888;SDS011;51092;50.874;7.024;2023-08-06T01:54:51;11.23;;;4.65;;
30888;SDS011;51092;50.874;7.024;2023-08-06T01:55:52;6.50;;;4.50;;
30888;SDS011;51092;50.874;7.024;2023-08-06T01:56:54;6.95;;;4.55;;
30888;SDS011;51092;50.874;7.024;2023-08-06T01:57:56;5.78;;;4.57;;
30888;SDS011;51092;50.874;7.024;2023-08-06T01:58:58;5.53;;;4.63;;
30888;SDS011;51092;50.874;7.024;2023-08-06T02:00:00;7.25;;;4.88;;
30888;SDS011;51092;50.874;7.024;2023-08-06T02:01:02;9.52;;;5.18;;
30888;SDS011;51092;50.874;7.024;2023-08-06T02:02:04;5.95;;;4.47;;
30888;SDS011;51092;50.874;7.024;2023-08-06T02:03:06;6.45;;;4.10;;
30888;SDS011;51092;50.874;7.024;2023-08-06T02:04:09;6.50;;;4.88;;
30888;SDS011;51092;50.874;7.024;2023-08-06T02:05:10;8.18;;;4.65;;
30888;SDS011;51092;50.874;7.024;2023-08-06T02:06:13;6.05;;;4.70;;
30888;SDS011;51092;50.874;7.024;2023-08-06T02:07:16;9.23;;;5.35;;
30888;SDS011;51092;50.874;7.024;2023-08-06T02:08:18;5.10;;;4.60;;
30888;SDS011;51092;50.874;7.024;2023-08-06T02:09:20;6.22;;;4.53;;
30888;SDS011;51092;50.874;7.024;2023-08-06T02:10:22;5.45;;;4.95;;
30888;SDS011;51092;50.874;7.024;2023-08-06T02:11:24;5.93;;;4.70;;
30888;SDS011;51092;50.874;7.024;2023-08-06T02:12:26;6.75;;;4.72;;
30888;SDS011;51092;50.874;7.024;2023-08-06T02:13:28;7.47;;;4.53;;
30888;SDS011;51092;50.874;7.024;2023-08-06T02:14:31;11.23;;;5.10;;
30888;SDS011;51092;50.874;7.024;2023-08-06T02:15:33;4.63;;;4.22;;
30888;SDS011;51092;50.874;7.024;2023-08-06T02:16:35;7.47;;;5.20;;
30888;SDS011;51092;50.874;7.024;2023-08-06T02:17:37;14.23;;;5.32;;
30888;SDS011;51092;50.874;7.024;2023-08-06T02:18:39;7.18;;;4.53;;
30888;SDS011;51092;50.874;7.024;2023-08-06T02:19:40;6.60;;;4.72;;
30888;SDS011;51092;50.874;7.024;2023-08-06T02:20:43;6.38;;;4.90;;
30888;SDS011;51092;50.874;7.024;2023-08-06T02:21:44;8.00;;;5.05;;
30888;SDS011;51092;50.874;7.024;2023-08-06T02:22:48;7.35;;;5.15;;
30888;SDS011;51092;50.874;7.024;2023-08-06T02:23:49;6.03;;;4.50;;
30888;SDS011;51092;50.874;7.024;2023-08-06T02:24:52;6.25;;;4.28;;
30888;SDS011;51092;50.874;7.024;2023-08-06T02:25:56;12.32;;;5.28;;
30888;SDS011;51092;50.874;7.024;2023-08-06T02:26:59;7.15;;;3.97;;
30888;SDS011;51092;50.874;7.024;2023-08-06T02:28:01;4.53;;;3.60;;
30888;SDS011;51092;50.874;7.024;2023-08-06T02:29:03;9.80;;;5.25;;
30888;SDS011;51092;50.874;7.024;2023-08-06T02:30:06;5.25;;;4.30;;
30888;SDS011;51092;50.874;7.024;2023-08-06T02:31:08;5.28;;;4.13;;
30888;SDS011;51092;50.874;7.024;2023-08-06T02:32:10;5.47;;;4.53;;
30888;SDS011;51092;50.874;7.024;2023-08-06T02:33:12;5.20;;;4.65;;
30888;SDS011;51092;50.874;7.024;2023-08-06T02:34:14;4.60;;;4.00;;
30888;SDS011;51092;50.874;7.024;2023-08-06T02:35:16;4.72;;;4.15;;
30888;SDS011;51092;50.874;7.024;2023-08-06T02:36:18;6.65;;;4.70;;
30888;SDS011;51092;50.874;7.024;2023-08-06T02:37:20;4.05;;;3.63;;
30888;SDS011;51092;50.874;7.024;2023-08-06T02:38:23;4.78;;;4.20;;
30888;SDS011;51092;50.874;7.024;2023-08-06T02:39:25;5.00;;;4.47;;
30888;SDS011;51092;50.874;7.024;2023-08-06T02:40:27;6.63;;;4.43;;
30888;SDS011;51092;50.874;7.024;2023-08-06T02:41:30;5.20;;;3.55;;
30888;SDS011;51092;50.874;7.024;2023-08-06T02:42:31;4.90;;;3.63;;
30888;SDS011;51092;50.874;7.024;2023-08-06T02:43:33;6.43;;;3.88;;
30888;SDS011;51092;50.874;7.024;2023-08-06T02:44:35;6.53;;;4.40;;
30888;SDS011;51092;50.874;7.024;2023-08-06T02:45:37;13.60;;;4.00;;
30888;SDS011;51092;50.874;7.024;2023-08-06T02:46:39;7.72;;;3.85;;
30888;SDS011;51092;50.874;7.024;2023-08-06T02:47:41;5.43;;;3.72;;
30888;SDS011;51092;50.874;7.024;2023-08-06T02:48:43;7.20;;;3.63;;
30888;SDS011;51092;50.874;7.024;2023-08-06T02:49:44;7.72;;;4.40;;
30888;SDS011;51092;50.874;7.024;2023-08-06T02:50:47;7.15;;;4.50;;
30888;SDS011;51092;50.874;7.024;2023-08-06T02:51:48;6.25;;;4.10;;
30888;SDS011;51092;50.874;7.024;2023-08-06T02:52:51;9.32;;;3.63;;
30888;SDS011;51092;50.874;7.024;2023-08-06T02:53:53;7.13;;;4.13;;
30888;SDS011;51092;50.874;7.024;2023-08-06T02:54:56;6.35;;;4.47;;
30888;SDS011;51092;50.874;7.024;2023-08-06T02:56:00;8.63;;;4.15;;
30888;SDS011;51092;50.874;7.024;2023-08-06T02:57:03;6.50;;;4.18;;
30888;SDS011;51092;50.874;7.024;2023-08-06T02:58:05;7.05;;;4.22;;
30888;SDS011;51092;50.874;7.024;2023-08-06T02:59:08;8.25;;;4.60;;
30888;SDS011;51092;50.874;7.024;2023-08-06T03:00:10;8.57;;;4.85;;
30888;SDS011;51092;50.874;7.024;2023-08-06T03:01:13;8.20;;;4.95;;
30888;SDS011;51092;50.874;7.024;2023-08-06T03:02:15;10.60;;;4.97;;
30888;SDS011;51092;50.874;7.024;2023-08-06T03:03:17;6.20;;;4.88;;
30888;SDS011;51092;50.874;7.024;2023-08-06T03:04:19;6.90;;;4.20;;
30888;SDS011;51092;50.874;7.024;2023-08-06T03:05:21;5.32;;;4.82;;
30888;SDS011;51092;50.874;7.024;2023-08-06T03:06:23;6.57;;;5.25;;
30888;SDS011;51092;50.874;7.024;2023-08-06T03:07:25;6.97;;;5.15;;
30888;SDS011;51092;50.874;7.024;2023-08-06T03:08:27;6.07;;;4.72;;
30888;SDS011;51092;50.874;7.024;2023-08-06T03:09:31;9.07;;;5.28;;
30888;SDS011;51092;50.874;7.024;2023-08-06T03:10:33;9.30;;;4.78;;
30888;SDS011;51092;50.874;7.024;2023-08-06T03:11:36;7.93;;;5.35;;
30888;SDS011;51092;50.874;7.024;2023-08-06T03:12:38;6.68;;;5.28;;
30888;SDS011;51092;50.874;7.024;2023-08-06T03:13:40;6.20;;;5.05;;
30888;SDS011;51092;50.874;7.024;2023-08-06T03:14:41;8.38;;;5.03;;
30888;SDS011;51092;50.874;7.024;2023-08-06T03:15:51;7.30;;;4.82;;
30888;SDS011;51092;50.874;7.024;2023-08-06T03:16:53;6.60;;;5.45;;
30888;SDS011;51092;50.874;7.024;2023-08-06T03:17:55;8.98;;;5.28;;
30888;SDS011;51092;50.874;7.024;2023-08-06T03:18:57;7.28;;;5.45;;
30888;SDS011;51092;50.874;7.024;2023-08-06T03:20:00;5.60;;;4.47;;
30888;SDS011;51092;50.874;7.024;2023-08-06T03:21:01;8.48;;;5.18;;
30888;SDS011;51092;50.874;7.024;2023-08-06T03:22:03;7.70;;;4.40;;
30888;SDS011;51092;50.874;7.024;2023-08-06T03:23:07;7.15;;;5.20;;
30888;SDS011;51092;50.874;7.024;2023-08-06T03:24:08;7.15;;;5.40;;
30888;SDS011;51092;50.874;7.024;2023-08-06T03:25:12;10.55;;;5.72;;
30888;SDS011;51092;50.874;7.024;2023-08-06T03:26:14;7.50;;;5.38;;
30888;SDS011;51092;50.874;7.024;2023-08-06T03:27:16;10.68;;;5.43;;
30888;SDS011;51092;50.874;7.024;2023-08-06T03:28:18;8.32;;;4.90;;
30888;SDS011;51092;50.874;7.024;2023-08-06T03:29:20;6.50;;;5.18;;
30888;SDS011;51092;50.874;7.024;2023-08-06T03:30:23;7.68;;;5.82;;
30888;SDS011;51092;50.874;7.024;2023-08-06T03:31:24;7.80;;;4.80;;
30888;SDS011;51092;50.874;7.024;2023-08-06T03:32:27;11.27;;;6.82;;
30888;SDS011;51092;50.874;7.024;2023-08-06T03:33:28;7.00;;;5.00;;
30888;SDS011;51092;50.874;7.024;2023-08-06T03:34:31;6.53;;;5.65;;
30888;SDS011;51092;50.874;7.024;2023-08-06T03:35:32;8.20;;;6.22;;
30888;SDS011;51092;50.874;7.024;2023-08-06T03:36:35;6.80;;;5.60;;
30888;SDS011;51092;50.874;7.024;2023-08-06T03:37:37;10.63;;;6.35;;
30888;SDS011;51092;50.874;7.024;2023-08-06T03:38:39;8.32;;;5.82;;
30888;SDS011;51092;50.874;7.024;2023-08-06T03:39:41;9.32;;;5.68;;
30888;SDS011;51092;50.874;7.024;2023-08-06T03:40:45;8.65;;;6.28;;
30888;SDS011;51092;50.874;7.024;2023-08-06T03:41:48;11.65;;;7.15;;
30888;SDS011;51092;50.874;7.024;2023-08-06T03:42:50;10.60;;;7.05;;
30888;SDS011;51092;50.874;7.024;2023-08-06T03:43:52;7.75;;;5.43;;
30888;SDS011;51092;50.874;7.024;2023-08-06T03:44:54;9.02;;;5.72;;
30888;SDS011;51092;50.874;7.024;2023-08-06T03:45:56;6.07;;;5.20;;
30888;SDS011;51092;50.874;7.024;2023-08-06T03:46:57;9.95;;;4.68;;
30888;SDS011;51092;50.874;7.024;2023-08-06T03:47:59;9.93;;;5.75;;
30888;SDS011;51092;50.874;7.024;2023-08-06T03:49:00;9.55;;;5.20;;
30888;SDS011;51092;50.874;7.024;2023-08-06T03:50:02;7.35;;;5.68;;
30888;SDS011;51092;50.874;7.024;2023-08-06T03:51:03;11.13;;;6.63;;
30888;SDS011;51092;50.874;7.024;2023-08-06T03:52:06;10.40;;;6.20;;
30888;SDS011;51092;50.874;7.024;2023-08-06T03:53:08;10.95;;;6.78;;
30888;SDS011;51092;50.874;7.024;2023-08-06T03:54:10;8.00;;;6.40;;
30888;SDS011;51092;50.874;7.024;2023-08-06T03:55:12;11.57;;;7.43;;
30888;SDS011;51092;50.874;7.024;2023-08-06T03:56:16;10.50;;;7.07;;
30888;SDS011;51092;50.874;7.024;2023-08-06T03:57:17;7.68;;;6.88;;
30888;SDS011;51092;50.874;7.024;2023-08-06T03:58:20;12.63;;;7.60;;
30888;SDS011;51092;50.874;7.024;2023-08-06T03:59:21;12.40;;;7.50;;
30888;SDS011;51092;50.874;7.024;2023-08-06T04:00:24;11.63;;;7.43;;
30888;SDS011;51092;50.874;7.024;2023-08-06T04:01:25;17.60;;;8.27;;
30888;SDS011;51092;50.874;7.024;2023-08-06T04:02:28;14.20;;;6.47;;
30888;SDS011;51092;50.874;7.024;2023-08-06T04:03:29;11.02;;;8.32;;
30888;SDS011;51092;50.874;7.024;2023-08-06T04:04:32;9.27;;;8.10;;
30888;SDS011;51092;50.874;7.024;2023-08-06T04:05:33;11.85;;;8.70;;
30888;SDS011;51092;50.874;7.024;2023-08-06T04:06:35;8.90;;;7.03;;
30888;SDS011;51092;50.874;7.024;2023-08-06T04:07:37;8.65;;;5.85;;
30888;SDS011;51092;50.874;7.024;2023-08-06T04:08:38;13.75;;;9.85;;
30888;SDS011;51092;50.874;7.024;2023-08-06T04:09:51;8.02;;;7.22;;
30888;SDS011;51092;50.874;7.024;2023-08-06T04:10:54;10.02;;;6.50;;
30888;SDS011;51092;50.874;7.024;2023-08-06T04:11:57;9.95;;;6.38;;
30888;SDS011;51092;50.874;7.024;2023-08-06T04:13:01;8.50;;;6.43;;
30888;SDS011;51092;50.874;7.024;2023-08-06T04:14:02;18.48;;;9.88;;
30888;SDS011;51092;50.874;7.024;2023-08-06T04:15:04;11.88;;;6.53;;
30888;SDS011;51092;50.874;7.024;2023-08-06T04:16:06;7.38;;;5.78;;
30888;SDS011;51092;50.874;7.024;2023-08-06T04:17:09;10.35;;;7.90;;
30888;SDS011;51092;50.874;7.024;2023-08-06T04:18:10;7.97;;;5.18;;
30888;SDS011;51092;50.874;7.024;2023-08-06T04:19:13;10.68;;;5.07;;
30888;SDS011;51092;50.874;7.024;2023-08-06T04:20:15;7.60;;;5.40;;
30888;SDS011;51092;50.874;7.024;2023-08-06T04:21:17;8.00;;;5.50;;
30888;SDS011;51092;50.874;7.024;2023-08-06T04:22:19;17.65;;;8.95;;
30888;SDS011;51092;50.874;7.024;2023-08-06T04:23:21;11.18;;;6.35;;
30888;SDS011;51092;50.874;7.024;2023-08-06T04:24:24;16.60;;;9.95;;
30888;SDS011;51092;50.874;7.024;2023-08-06T04:25:25;8.18;;;6.28;;
30888;SDS011;51092;50.874;7.024;2023-08-06T04:26:28;11.77;;;8.50;;
30888;SDS011;51092;50.874;7.024;2023-08-06T04:27:31;12.25;;;7.68;;
30888;SDS011;51092;50.874;7.024;2023-08-06T04:28:33;8.48;;;5.75;;
30888;SDS011;51092;50.874;7.024;2023-08-06T04:29:34;16.92;;;10.77;;
30888;SDS011;51092;50.874;7.024;2023-08-06T04:30:36;14.27;;;9.63;;
30888;SDS011;51092;50.874;7.024;2023-08-06T04:31:37;12.40;;;5.72;;
30888;SDS011;51092;50.874;7.024;2023-08-06T04:32:40;9.23;;;6.93;;
30888;SDS011;51092;50.874;7.024;2023-08-06T04:33:41;15.80;;;9.50;;
30888;SDS011;51092;50.874;7.024;2023-08-06T04:34:44;8.63;;;5.10;;
30888;SDS011;51092;50.874;7.024;2023-08-06T04:35:46;21.08;;;9.43;;
30888;SDS011;51092;50.874;7.024;2023-08-06T04:36:48;18.75;;;9.27;;
30888;SDS011;51092;50.874;7.024;2023-08-06T04:37:50;15.68;;;10.27;;
30888;SDS011;51092;50.874;7.024;2023-08-06T04:38:52;11.73;;;7.97;;
30888;SDS011;51092;50.874;7.024;2023-08-06T04:39:54;11.48;;;8.15;;
30888;SDS011;51092;50.874;7.024;2023-08-06T04:40:56;9.60;;;6.03;;
30888;SDS011;51092;50.874;7.024;2023-08-06T04:41:59;12.40;;;5.78;;
30888;SDS011;51092;50.874;7.024;2023-08-06T04:43:02;18.83;;;7.75;;
30888;SDS011;51092;50.874;7.024;2023-08-06T04:44:04;11.25;;;6.40;;
30888;SDS011;51092;50.874;7.024;2023-08-06T04:45:07;8.85;;;6.28;;
30888;SDS011;51092;50.874;7.024;2023-08-06T04:46:09;9.63;;;5.60;;
30888;SDS011;51092;50.874;7.024;2023-08-06T04:47:11;8.88;;;6.05;;
30888;SDS011;51092;50.874;7.024;2023-08-06T04:48:12;13.05;;;7.75;;
30888;SDS011;51092;50.874;7.024;2023-08-06T04:49:14;7.57;;;5.30;;
30888;SDS011;51092;50.874;7.024;2023-08-06T04:50:15;14.10;;;8.02;;
30888;SDS011;51092;50.874;7.024;2023-08-06T04:51:17;10.75;;;5.38;;
30888;SDS011;51092;50.874;7.024;2023-08-06T04:52:19;11.25;;;7.75;;
30888;SDS011;51092;50.874;7.024;2023-08-06T04:53:21;9.32;;;6.15;;
30888;SDS011;51092;50.874;7.024;2023-08-06T04:54:22;12.77;;;8.07;;
30888;SDS011;51092;50.874;7.024;2023-08-06T04:55:25;9.50;;;5.05;;
30888;SDS011;51092;50.874;7.024;2023-08-06T04:56:26;6.32;;;5.22;;
30888;SDS011;51092;50.874;7.024;2023-08-06T04:57:28;12.30;;;9.30;;
30888;SDS011;51092;50.874;7.024;2023-08-06T04:58:30;8.07;;;6.03;;
30888;SDS011;51092;50.874;7.024;2023-08-06T04:59:32;16.95;;;8.57;;
30888;SDS011;51092;50.874;7.024;2023-08-06T05:00:33;10.35;;;6.15;;
30888;SDS011;51092;50.874;7.024;2023-08-06T05:01:35;9.10;;;6.35;;
30888;SDS011;51092;50.874;7.024;2023-08-06T05:02:37;9.43;;;6.82;;
30888;SDS011;51092;50.874;7.024;2023-08-06T05:03:39;14.73;;;8.43;;
30888;SDS011;51092;50.874;7.024;2023-08-06T05:04:41;14.70;;;9.30;;
30888;SDS011;51092;50.874;7.024;2023-08-06T05:05:43;9.05;;;5.70;;
30888;SDS011;51092;50.874;7.024;2023-08-06T05:06:47;15.70;;;7.45;;
30888;SDS011;51092;50.874;7.024;2023-08-06T05:07:49;12.43;;;7.95;;
30888;SDS011;51092;50.874;7.024;2023-08-06T05:08:51;7.97;;;5.20;;
30888;SDS011;51092;50.874;7.024;2023-08-06T05:09:53;13.40;;;6.63;;
30888;SDS011;51092;50.874;7.024;2023-08-06T05:10:55;8.45;;;4.97;;
30888;SDS011;51092;50.874;7.024;2023-08-06T05:11:57;8.52;;;5.80;;
30888;SDS011;51092;50.874;7.024;2023-08-06T05:13:02;7.95;;;5.45;;
30888;SDS011;51092;50.874;7.024;2023-08-06T05:14:05;14.93;;;7.88;;
30888;SDS011;51092;50.874;7.024;2023-08-06T05:15:08;14.25;;;9.10;;
30888;SDS011;51092;50.874;7.024;2023-08-06T05:16:09;10.02;;;7.30;;
30888;SDS011;51092;50.874;7.024;2023-08-06T05:17:12;12.48;;;7.88;;
30888;SDS011;51092;50.874;7.024;2023-08-06T05:18:13;10.80;;;7.55;;
30888;SDS011;51092;50.874;7.024;2023-08-06T05:19:16;12.18;;;7.45;;
30888;SDS011;51092;50.874;7.024;2023-08-06T05:20:17;10.40;;;6.55;;
30888;SDS011;51092;50.874;7.024;2023-08-06T05:21:20;7.22;;;5.20;;
30888;SDS011;51092;50.874;7.024;2023-08-06T05:22:21;16.33;;;9.50;;
30888;SDS011;51092;50.874;7.024;2023-08-06T05:23:24;6.63;;;5.30;;
30888;SDS011;51092;50.874;7.024;2023-08-06T05:24:25;16.40;;;10.63;;
30888;SDS011;51092;50.874;7.024;2023-08-06T05:25:27;9.55;;;8.48;;
30888;SDS011;51092;50.874;7.024;2023-08-06T05:26:28;7.40;;;6.07;;
30888;SDS011;51092;50.874;7.024;2023-08-06T05:27:29;11.95;;;4.53;;
30888;SDS011;51092;50.874;7.024;2023-08-06T05:28:31;8.70;;;5.10;;
30888;SDS011;51092;50.874;7.024;2023-08-06T05:29:34;13.25;;;7.10;;
30888;SDS011;51092;50.874;7.024;2023-08-06T05:30:38;10.57;;;6.65;;
30888;SDS011;51092;50.874;7.024;2023-08-06T05:31:40;14.25;;;8.57;;
30888;SDS011;51092;50.874;7.024;2023-08-06T05:32:41;17.27;;;9.48;;
30888;SDS011;51092;50.874;7.024;2023-08-06T05:33:42;8.02;;;5.68;;
30888;SDS011;51092;50.874;7.024;2023-08-06T05:34:44;7.63;;;5.60;;
30888;SDS011;51092;50.874;7.024;2023-08-06T05:35:46;6.68;;;4.55;;
30888;SDS011;51092;50.874;7.024;2023-08-06T05:36:47;7.97;;;5.50;;
30888;SDS011;51092;50.874;7.024;2023-08-06T05:37:49;15.02;;;7.50;;
30888;SDS011;51092;50.874;7.024;2023-08-06T05:38:51;17.10;;;8.45;;
30888;SDS011;51092;50.874;7.024;2023-08-06T05:39:52;6.38;;;4.40;;
30888;SDS011;51092;50.874;7.024;2023-08-06T05:40:53;7.07;;;4.88;;
30888;SDS011;51092;50.874;7.024;2023-08-06T05:41:56;13.95;;;7.65;;
30888;SDS011;51092;50.874;7.024;2023-08-06T05:42:58;7.35;;;4.13;;
30888;SDS011;51092;50.874;7.024;2023-08-06T05:44:00;9.23;;;5.90;;
30888;SDS011;51092;50.874;7.024;2023-08-06T05:45:04;9.50;;;6.00;;
30888;SDS011;51092;50.874;7.024;2023-08-06T05:46:07;7.90;;;4.20;;
30888;SDS011;51092;50.874;7.024;2023-08-06T05:47:08;5.88;;;4.55;;
30888;SDS011;51092;50.874;7.024;2023-08-06T05:48:11;9.43;;;5.70;;
30888;SDS011;51092;50.874;7.024;2023-08-06T05:49:12;4.88;;;4.30;;
30888;SDS011;51092;50.874;7.024;2023-08-06T05:50:15;10.85;;;6.15;;
30888;SDS011;51092;50.874;7.024;2023-08-06T05:51:16;5.78;;;4.00;;
30888;SDS011;51092;50.874;7.024;2023-08-06T05:52:20;6.78;;;4.20;;
30888;SDS011;51092;50.874;7.024;2023-08-06T05:53:21;6.43;;;4.13;;
30888;SDS011;51092;50.874;7.024;2023-08-06T05:54:23;6.05;;;4.07;;
30888;SDS011;51092;50.874;7.024;2023-08-06T05:55:24;9.10;;;4.82;;
30888;SDS011;51092;50.874;7.024;2023-08-06T05:56:26;7.05;;;3.75;;
30888;SDS011;51092;50.874;7.024;2023-08-06T05:57:27;5.13;;;3.85;;
30888;SDS011;51092;50.874;7.024;2023-08-06T05:58:29;6.78;;;3.75;;
30888;SDS011;51092;50.874;7.024;2023-08-06T05:59:31;6.90;;;3.53;;
30888;SDS011;51092;50.874;7.024;2023-08-06T06:00:35;5.63;;;3.35;;
30888;SDS011;51092;50.874;7.024;2023-08-06T06:01:36;4.57;;;3.05;;
30888;SDS011;51092;50.874;7.024;2023-08-06T06:02:39;9.63;;;3.80;;
30888;SDS011;51092;50.874;7.024;2023-08-06T06:03:40;9.07;;;2.80;;
30888;SDS011;51092;50.874;7.024;2023-08-06T06:04:43;7.78;;;3.40;;
30888;SDS011;51092;50.874;7.024;2023-08-06T06:05:45;5.72;;;2.95;;
30888;SDS011;51092;50.874;7.024;2023-08-06T06:06:47;5.10;;;2.78;;
30888;SDS011;51092;50.874;7.024;2023-08-06T06:07:49;7.70;;;2.92;;
30888;SDS011;51092;50.874;7.024;2023-08-06T06:08:50;4.03;;;2.28;;
30888;SDS011;51092;50.874;7.024;2023-08-06T06:09:52;9.95;;;3.03;;
30888;SDS011;51092;50.874;7.024;2023-08-06T06:10:54;5.28;;;2.78;;
30888;SDS011;51092;50.874;7.024;2023-08-06T06:11:57;15.77;;;4.32;;
30888;SDS011;51092;50.874;7.024;2023-08-06T06:12:58;5.65;;;3.13;;
30888;SDS011;51092;50.874;7.024;2023-08-06T06:14:01;5.00;;;4.10;;
30888;SDS011;51092;50.874;7.024;2023-08-06T06:15:07;7.18;;;3.80;;
30888;SDS011;51092;50.874;7.024;2023-08-06T06:16:11;9.23;;;4.97;;